Alta Sierra, California
Current Conditions -  °F | °C
As of 2:20 AM on Saturday 22 Nov 2014 (Local Time) from KGOO Reporting Station
Overcast Overcast  
Wind Chill: 39°   Ceiling: 1800
Heat Index: 45°   Visibility: 2.5mi
Dew Point: 43°   Wind: 10mph
Humidity: 93%   Direction: 130°SE
Pressure: 30.11"   Gusts: 18mph
Location:  39.2183°N, 120.924°W
Report Text: KGOO 221020Z AUTO 13009G16KT 2 1/2SM OVC018 07/06 A3011 RMK AO1 P0001
Loading
Personal Weather Stations






























Interactive Weather Map New forecast layout! Learn more

10-Day Weather Forecast

Advertisements
Track Severe Weather on mobile